Time;durP1;ratioP1;P1;durP2;ratioP2;P2;SDS_P1;SDS_P2;PMS_P1;PMS_P2;Temp;Humidity;BMP_temperature;BMP_pressure;BME280_temperature;BME280_humidity;BME280_pressure;Samples;Min_cycle;Max_cycle;Signal;HPM_P1;HPM_P2
2021/03/04 00:00:02;;;;;;;69.28;27.02;;;4.90;99.90;;;;;;5003662;28;20107;-81
2021/03/04 00:02:29;;;;;;;63.25;24.90;;;4.90;99.90;;;;;;5008039;28;20057;-82
2021/03/04 00:04:55;;;;;;;73.18;27.33;;;4.90;99.90;;;;;;5004867;28;20084;-82
2021/03/04 00:07:21;;;;;;;68.07;26.50;;;4.90;99.90;;;;;;5015091;28;20133;-82
2021/03/04 00:09:48;;;;;;;63.08;26.88;;;4.80;99.90;;;;;;5002348;28;20078;-83
2021/03/04 00:12:14;;;;;;;69.03;26.35;;;4.80;99.90;;;;;;5008451;28;20125;-82
2021/03/04 00:14:40;;;;;;;73.35;26.42;;;4.90;99.90;;;;;;5004872;28;20060;-82
2021/03/04 00:17:06;;;;;;;65.22;26.80;;;4.90;99.90;;;;;;5001370;28;20054;-82
2021/03/04 00:19:33;;;;;;;73.43;26.40;;;4.90;99.90;;;;;;5011845;28;20058;-83
2021/03/04 00:21:59;;;;;;;68.28;26.40;;;4.90;99.90;;;;;;5001994;28;20508;-82
2021/03/04 00:24:25;;;;;;;72.70;26.65;;;4.80;99.90;;;;;;5015296;28;20144;-82
2021/03/04 00:26:51;;;;;;;73.47;27.30;;;4.80;99.90;;;;;;5013506;28;20046;-82
2021/03/04 00:29:17;;;;;;;66.88;26.00;;;4.80;99.90;;;;;;5003571;28;20045;-82
2021/03/04 00:31:44;;;;;;;71.13;26.80;;;4.80;99.90;;;;;;5013908;28;20081;-82
2021/03/04 00:34:10;;;;;;;67.05;25.85;;;4.80;99.90;;;;;;5014164;28;20049;-82
2021/03/04 00:36:36;;;;;;;68.75;27.13;;;4.80;99.90;;;;;;5015139;28;20053;-83
2021/03/04 00:39:06;;;;;;;60.35;24.77;;;4.80;99.90;;;;;;5003397;28;20081;-82
2021/03/04 00:41:33;;;;;;;64.55;25.13;;;4.80;99.90;;;;;;5011680;28;20053;-82
2021/03/04 00:43:59;;;;;;;64.15;26.10;;;4.70;99.90;;;;;;5014079;28;20141;-81
2021/03/04 00:46:25;;;;;;;64.53;24.10;;;4.70;99.90;;;;;;5004265;28;20053;-83
2021/03/04 00:48:53;;;;;;;66.63;26.25;;;4.70;99.90;;;;;;4999034;28;20058;-83
2021/03/04 00:51:19;;;;;;;62.92;25.60;;;4.80;99.90;;;;;;5013556;28;20075;-83
2021/03/04 00:53:45;;;;;;;65.88;25.45;;;4.80;99.90;;;;;;5001686;28;20045;-82
2021/03/04 00:56:12;;;;;;;70.43;27.00;;;4.80;99.90;;;;;;5002196;28;20095;-83
2021/03/04 00:58:38;;;;;;;70.18;26.23;;;4.80;99.90;;;;;;5000734;28;20056;-82
2021/03/04 01:01:05;;;;;;;63.75;25.52;;;4.80;99.90;;;;;;5000883;28;20460;-82
2021/03/04 01:03:32;;;;;;;67.25;25.98;;;4.80;99.90;;;;;;5004700;28;20076;-82
2021/03/04 01:05:58;;;;;;;70.72;27.88;;;4.80;99.90;;;;;;5002657;28;20046;-82
2021/03/04 01:08:24;;;;;;;63.00;24.95;;;4.80;99.90;;;;;;4991633;28;20060;-82
2021/03/04 01:10:51;;;;;;;69.65;25.77;;;4.80;99.90;;;;;;5013863;28;20242;-82
2021/03/04 01:13:18;;;;;;;65.07;24.65;;;4.80;99.90;;;;;;5002235;28;20158;-80
2021/03/04 01:15:44;;;;;;;64.68;26.20;;;4.80;99.90;;;;;;5014797;28;20101;-82
2021/03/04 01:18:25;;;;;;;58.92;23.58;;;4.80;99.90;;;;;;5003471;28;20045;-82
2021/03/04 01:20:52;;;;;;;53.88;22.45;;;4.80;99.90;;;;;;5003186;28;20060;-82
2021/03/04 01:23:18;;;;;;;62.30;23.00;;;4.70;99.90;;;;;;4995616;28;20105;-83
2021/03/04 01:25:44;;;;;;;67.13;24.38;;;4.70;99.90;;;;;;4999431;28;20053;-82
2021/03/04 01:28:11;;;;;;;63.00;24.38;;;4.60;99.90;;;;;;5002856;28;20034;-82
2021/03/04 01:30:37;;;;;;;71.32;26.80;;;4.60;99.90;;;;;;5013759;28;20046;-82
2021/03/04 01:33:16;;;;;;;63.67;25.70;;;4.60;99.90;;;;;;5003171;28;20025;-82
2021/03/04 01:35:43;;;;;;;71.35;26.45;;;4.60;99.90;;;;;;5013674;28;20058;-83
2021/03/04 01:38:11;;;;;;;69.90;25.90;;;4.60;99.90;;;;;;4993958;28;20060;-82
2021/03/04 01:40:38;;;;;;;74.53;26.45;;;4.50;99.90;;;;;;5002950;28;20049;-81
2021/03/04 01:43:04;;;;;;;65.63;23.52;;;4.50;99.90;;;;;;5008988;28;20073;-83
2021/03/04 01:45:30;;;;;;;65.00;24.05;;;4.50;99.90;;;;;;5011055;28;20073;-82
2021/03/04 01:47:57;;;;;;;75.47;27.80;;;4.60;99.90;;;;;;5005913;28;20092;-81
2021/03/04 01:50:26;;;;;;;75.60;25.88;;;4.50;99.90;;;;;;5002765;28;20054;-83
2021/03/04 01:52:53;;;;;;;71.07;22.42;;;4.50;99.90;;;;;;5012039;28;20512;-82
2021/03/04 01:55:20;;;;;;;71.22;25.23;;;4.50;99.90;;;;;;5003631;28;20129;-83
2021/03/04 01:57:48;;;;;;;72.75;24.35;;;4.50;99.90;;;;;;4998530;28;20471;-81
2021/03/04 02:00:17;;;;;;;70.38;23.50;;;4.50;99.90;;;;;;5011945;28;20076;-82
2021/03/04 02:02:43;;;;;;;66.45;23.10;;;4.50;99.90;;;;;;4999777;28;20046;-81
2021/03/04 02:05:11;;;;;;;73.03;23.98;;;4.50;99.90;;;;;;5002498;28;20042;-82
2021/03/04 02:07:52;;;;;;;78.55;24.92;;;4.50;99.90;;;;;;5012180;28;20503;-82
2021/03/04 02:10:27;;;;;;;72.43;23.20;;;4.50;99.90;;;;;;5012729;28;20049;-82
2021/03/04 02:13:17;;;;;;;72.35;24.27;;;4.50;99.90;;;;;;5010644;28;20542;-82
2021/03/04 02:15:52;;;;;;;80.60;24.67;;;4.50;99.90;;;;;;5009925;28;20052;-82
2021/03/04 02:18:21;;;;;;;75.90;23.75;;;4.50;99.90;;;;;;4990977;28;20077;-81
2021/03/04 02:21:04;;;;;;;79.07;27.98;;;4.50;99.90;;;;;;5010814;28;20053;-82
2021/03/04 02:23:59;;;;;;;77.72;26.33;;;4.50;99.90;;;;;;5012549;28;20045;-82
2021/03/04 02:27:13;;;;;;;83.25;25.70;;;4.50;99.90;;;;;;5000548;28;20064;-81
2021/03/04 02:29:50;;;;;;;80.43;24.95;;;4.50;99.90;;;;;;4929085;29;20054;-82
2021/03/04 02:32:22;;;;;;;83.65;25.30;;;4.50;99.90;;;;;;4925364;29;20138;-81
2021/03/04 02:34:54;;;;;;;87.53;27.42;;;4.50;99.90;;;;;;4982173;28;20103;-82
2021/03/04 02:37:24;;;;;;;82.07;27.13;;;4.50;99.90;;;;;;4999658;28;20046;-82
2021/03/04 02:39:54;;;;;;;88.18;27.83;;;4.50;99.90;;;;;;4992571;28;20073;-82
2021/03/04 02:42:22;;;;;;;81.97;26.55;;;4.50;99.90;;;;;;5010404;28;20495;-82
2021/03/04 02:44:51;;;;;;;82.93;26.27;;;4.50;99.90;;;;;;5009060;28;20077;-82
2021/03/04 02:47:19;;;;;;;92.53;26.83;;;4.50;99.90;;;;;;4999624;28;20481;-82
2021/03/04 02:49:46;;;;;;;79.38;27.00;;;4.50;99.90;;;;;;4999100;28;20078;-82
2021/03/04 02:52:13;;;;;;;88.65;27.67;;;4.50;99.90;;;;;;4999862;28;20124;-82
2021/03/04 02:54:40;;;;;;;83.50;25.55;;;4.60;99.90;;;;;;4995368;28;20493;-82
2021/03/04 02:57:09;;;;;;;94.93;25.77;;;4.50;99.90;;;;;;4995546;28;20109;-82
2021/03/04 02:59:38;;;;;;;94.10;28.67;;;4.50;99.90;;;;;;4992413;28;20060;-82
2021/03/04 03:02:06;;;;;;;89.68;27.13;;;4.50;99.90;;;;;;5007812;28;20114;-82
2021/03/04 03:04:36;;;;;;;88.65;27.00;;;4.50;99.90;;;;;;5001779;28;20057;-82
2021/03/04 03:07:03;;;;;;;80.32;25.17;;;4.50;99.90;;;;;;5010259;28;20129;-82
2021/03/04 03:09:31;;;;;;;81.22;25.90;;;4.50;99.90;;;;;;5000753;28;24988;-82
2021/03/04 03:11:58;;;;;;;87.25;25.95;;;4.50;99.90;;;;;;4993896;28;20056;-81
2021/03/04 03:14:25;;;;;;;88.70;26.90;;;4.40;99.90;;;;;;5000191;28;20053;-82
2021/03/04 03:16:52;;;;;;;90.15;26.80;;;4.40;99.90;;;;;;5003233;28;20114;-82
2021/03/04 03:19:19;;;;;;;87.32;28.25;;;4.50;99.90;;;;;;4992573;28;20084;-82
2021/03/04 03:21:45;;;;;;;90.90;25.67;;;4.50;99.90;;;;;;5008235;28;20458;-83
2021/03/04 03:24:13;;;;;;;88.97;27.38;;;4.50;99.90;;;;;;5011268;28;20081;-82
2021/03/04 03:26:39;;;;;;;80.78;26.60;;;4.50;99.90;;;;;;4992353;28;20073;-82
2021/03/04 03:29:05;;;;;;;84.30;28.42;;;4.50;99.90;;;;;;5009722;28;20074;-81
2021/03/04 03:31:35;;;;;;;74.72;23.88;;;4.50;99.90;;;;;;4999653;28;20108;-82
2021/03/04 03:34:03;;;;;;;72.78;24.10;;;4.50;99.90;;;;;;5002029;28;20049;-82
2021/03/04 03:36:29;;;;;;;83.93;26.73;;;4.60;99.90;;;;;;5006527;28;20121;-81
2021/03/04 03:39:00;;;;;;;77.88;23.90;;;4.60;99.90;;;;;;5010102;28;20054;-81
2021/03/04 03:41:26;;;;;;;72.82;24.02;;;4.60;99.90;;;;;;5008866;28;20087;-82
2021/03/04 03:43:53;;;;;;;78.28;23.40;;;4.60;99.90;;;;;;4993721;28;20069;-81
2021/03/04 03:46:21;;;;;;;65.22;22.30;;;4.60;99.90;;;;;;5011158;28;20081;-82
2021/03/04 03:48:49;;;;;;;76.80;23.25;;;4.60;99.90;;;;;;5009956;28;20114;-82
2021/03/04 03:51:16;;;;;;;72.20;23.30;;;4.60;99.90;;;;;;5010913;28;20082;-82
2021/03/04 03:53:44;;;;;;;72.55;24.45;;;4.50;99.90;;;;;;4993077;28;20470;-82
2021/03/04 03:56:12;;;;;;;71.30;21.25;;;4.50;99.90;;;;;;4992987;28;20136;-82
2021/03/04 03:58:38;;;;;;;75.18;23.60;;;4.50;99.90;;;;;;5009864;28;20109;-82
2021/03/04 04:01:07;;;;;;;72.30;23.63;;;4.50;99.90;;;;;;4994630;28;20141;-82
2021/03/04 04:03:34;;;;;;;65.25;20.67;;;4.50;99.90;;;;;;5000612;28;20054;-82
2021/03/04 04:06:02;;;;;;;75.15;22.55;;;4.40;99.90;;;;;;5007096;28;20049;-82
2021/03/04 04:08:29;;;;;;;72.68;23.35;;;4.40;99.90;;;;;;5000274;28;20085;-82
2021/03/04 04:10:55;;;;;;;70.20;23.80;;;4.40;99.90;;;;;;5015286;28;20079;-83
2021/03/04 04:13:22;;;;;;;75.78;22.98;;;4.40;99.90;;;;;;5015590;28;20072;-82
2021/03/04 04:15:50;;;;;;;67.43;22.17;;;4.40;99.90;;;;;;5008706;28;20049;-82
2021/03/04 04:18:17;;;;;;;72.13;23.73;;;4.40;99.90;;;;;;4998933;28;20050;-81
2021/03/04 04:20:47;;;;;;;67.15;21.88;;;4.40;99.90;;;;;;5005553;28;20229;-83
2021/03/04 04:23:14;;;;;;;63.53;21.15;;;4.40;99.90;;;;;;5006612;28;20038;-82
2021/03/04 04:25:52;;;;;;;60.92;20.63;;;4.40;99.90;;;;;;5012777;28;20078;-82
2021/03/04 04:28:19;;;;;;;58.03;17.98;;;4.40;99.90;;;;;;5013871;28;20066;-82
2021/03/04 04:30:45;;;;;;;53.08;19.13;;;4.40;99.90;;;;;;5014826;28;20110;-81
2021/03/04 04:33:12;;;;;;;45.15;16.83;;;4.30;99.90;;;;;;5005707;28;20050;-82
2021/03/04 04:35:38;;;;;;;51.28;17.33;;;4.30;99.90;;;;;;5015636;28;20457;-82
2021/03/04 04:38:05;;;;;;;44.85;16.90;;;4.30;99.90;;;;;;5001686;28;20552;-82
2021/03/04 04:40:33;;;;;;;47.15;17.35;;;4.30;99.90;;;;;;4997478;28;20042;-82
2021/03/04 04:42:59;;;;;;;55.88;16.25;;;4.30;99.90;;;;;;5015287;28;20115;-82
2021/03/04 04:45:25;;;;;;;44.90;16.30;;;4.20;99.90;;;;;;4997303;28;20129;-83
2021/03/04 04:47:51;;;;;;;46.90;16.45;;;4.30;99.90;;;;;;5014378;28;20068;-82
2021/03/04 04:50:18;;;;;;;53.70;18.83;;;4.30;99.90;;;;;;4998025;28;20042;-82
2021/03/04 04:52:44;;;;;;;57.58;19.45;;;4.30;99.90;;;;;;5011047;28;20121;-83
2021/03/04 04:55:10;;;;;;;59.60;18.88;;;4.30;99.90;;;;;;5005224;28;20109;-82
2021/03/04 04:57:37;;;;;;;58.85;20.40;;;4.30;99.90;;;;;;4996910;28;22300;-81
2021/03/04 05:00:05;;;;;;;65.90;19.85;;;4.40;99.90;;;;;;5015668;28;20161;-82
2021/03/04 05:02:31;;;;;;;56.95;18.92;;;4.40;99.90;;;;;;5011612;28;20084;-82
2021/03/04 05:04:58;;;;;;;60.45;20.80;;;4.40;99.90;;;;;;5004126;28;20457;-82
2021/03/04 05:07:24;;;;;;;59.33;19.85;;;4.40;99.90;;;;;;5003453;28;20073;-83
2021/03/04 05:09:50;;;;;;;68.50;21.13;;;4.40;99.90;;;;;;4994764;28;20056;-82
2021/03/04 05:12:17;;;;;;;62.22;20.50;;;4.40;99.90;;;;;;5004098;28;20113;-82
2021/03/04 05:14:43;;;;;;;64.85;20.83;;;4.30;99.90;;;;;;5012414;28;20073;-82
2021/03/04 05:17:09;;;;;;;64.60;20.30;;;4.40;99.90;;;;;;5006345;28;20071;-82
2021/03/04 05:19:36;;;;;;;58.92;20.45;;;4.30;99.90;;;;;;4999878;28;20580;-82
2021/03/04 05:22:02;;;;;;;64.57;20.85;;;4.30;99.90;;;;;;5003589;28;20058;-82
2021/03/04 05:24:28;;;;;;;60.95;19.60;;;4.30;99.90;;;;;;4995293;28;20128;-83
2021/03/04 05:26:56;;;;;;;55.75;18.45;;;4.30;99.90;;;;;;5012270;28;20101;-81
2021/03/04 05:29:22;;;;;;;59.33;19.40;;;4.30;99.90;;;;;;4991026;28;20050;-82
2021/03/04 05:31:49;;;;;;;72.45;21.63;;;4.30;99.90;;;;;;5014780;28;20072;-82
2021/03/04 05:34:15;;;;;;;52.13;19.23;;;4.30;99.90;;;;;;5013534;28;20080;-83
2021/03/04 05:36:41;;;;;;;67.00;19.88;;;4.30;99.90;;;;;;4993093;28;20132;-82
2021/03/04 05:39:08;;;;;;;56.53;19.63;;;4.40;99.90;;;;;;5002929;28;20157;-82
2021/03/04 05:41:35;;;;;;;51.35;16.75;;;4.40;99.90;;;;;;5003503;28;20109;-81
2021/03/04 05:44:04;;;;;;;49.97;17.48;;;4.40;99.90;;;;;;5001319;28;20062;-81
2021/03/04 05:46:34;;;;;;;47.35;17.20;;;4.40;99.90;;;;;;5003723;28;20070;-82
2021/03/04 05:49:02;;;;;;;55.97;17.90;;;4.30;99.90;;;;;;5010339;28;20105;-82
2021/03/04 05:51:35;;;;;;;49.28;18.60;;;4.30;99.90;;;;;;5002058;28;20056;-82
2021/03/04 05:54:05;;;;;;;52.05;16.42;;;4.40;99.90;;;;;;5005104;28;20456;-81
2021/03/04 05:56:34;;;;;;;57.20;19.45;;;4.30;99.90;;;;;;5012360;28;20101;-81
2021/03/04 05:59:00;;;;;;;58.35;20.42;;;4.30;99.90;;;;;;5010485;28;20117;-81
2021/03/04 06:01:29;;;;;;;51.50;17.30;;;4.30;99.90;;;;;;5002942;28;20691;-82
2021/03/04 06:03:56;;;;;;;47.20;15.88;;;4.30;99.90;;;;;;5000263;28;20108;-81
2021/03/04 06:06:22;;;;;;;37.80;15.27;;;4.20;99.90;;;;;;5015527;28;20137;-83
2021/03/04 06:08:48;;;;;;;44.17;14.43;;;4.30;99.90;;;;;;5012879;28;20119;-82
2021/03/04 06:11:14;;;;;;;43.60;15.00;;;4.30;99.90;;;;;;5015660;28;20053;-82
2021/03/04 06:13:41;;;;;;;49.42;17.08;;;4.30;99.90;;;;;;5014929;28;20497;-81
2021/03/04 06:16:07;;;;;;;49.63;16.33;;;4.20;99.90;;;;;;5004164;28;20064;-82
2021/03/04 06:18:39;;;;;;;45.15;15.32;;;4.20;99.90;;;;;;5004402;28;20045;-81
2021/03/04 06:21:17;;;;;;;42.78;14.70;;;4.30;99.90;;;;;;5002521;28;20049;-82
2021/03/04 06:23:43;;;;;;;52.10;16.38;;;4.30;99.90;;;;;;5004527;28;20049;-83
2021/03/04 06:26:09;;;;;;;44.67;14.80;;;4.30;99.90;;;;;;4993624;28;20116;-83
2021/03/04 06:28:36;;;;;;;47.33;15.63;;;4.20;99.90;;;;;;5010697;28;20088;-82
2021/03/04 06:31:02;;;;;;;50.50;16.33;;;4.20;99.90;;;;;;5012113;28;20454;-82
2021/03/04 06:33:35;;;;;;;39.97;16.23;;;4.20;99.90;;;;;;5000304;28;20049;-82
2021/03/04 06:36:13;;;;;;;47.13;15.48;;;4.20;99.90;;;;;;5012927;28;20042;-82
2021/03/04 06:38:40;;;;;;;42.17;14.80;;;4.30;99.90;;;;;;5014852;28;20038;-83
2021/03/04 06:41:19;;;;;;;43.97;15.95;;;4.30;99.90;;;;;;5015624;28;20109;-82
2021/03/04 06:43:46;;;;;;;38.05;13.70;;;4.30;99.90;;;;;;5015069;28;20042;-82
2021/03/04 06:46:13;;;;;;;41.17;14.10;;;4.30;99.90;;;;;;5012792;28;20152;-82
2021/03/04 06:48:53;;;;;;;46.53;14.85;;;4.30;99.90;;;;;;4996320;28;20049;-82
2021/03/04 06:51:19;;;;;;;41.00;14.85;;;4.30;99.90;;;;;;4999518;28;20446;-83
2021/03/04 06:53:53;;;;;;;38.80;13.57;;;4.30;99.90;;;;;;5005837;28;20137;-82
2021/03/04 06:56:29;;;;;;;34.67;12.93;;;4.30;99.90;;;;;;5010372;28;20042;-82
2021/03/04 06:59:01;;;;;;;32.78;11.35;;;4.30;99.90;;;;;;4993805;28;20038;-79
2021/03/04 07:01:29;;;;;;;37.17;12.63;;;4.40;99.90;;;;;;5005991;28;21534;-80
2021/03/04 07:03:56;;;;;;;29.83;11.25;;;4.40;99.90;;;;;;5005263;28;20160;-80
2021/03/04 07:06:36;;;;;;;29.25;11.60;;;4.30;99.90;;;;;;5000842;28;20945;-80
2021/03/04 07:09:02;;;;;;;34.17;11.75;;;4.40;99.90;;;;;;4991288;28;20066;-81
2021/03/04 07:11:30;;;;;;;30.63;9.88;;;4.40;99.90;;;;;;4993964;28;20555;-82
2021/03/04 07:13:57;;;;;;;31.13;11.32;;;4.40;99.90;;;;;;4997075;28;20103;-79
2021/03/04 07:16:29;;;;;;;36.38;12.20;;;4.40;99.90;;;;;;4992125;28;21116;-79
2021/03/04 07:18:58;;;;;;;35.83;10.90;;;4.50;99.90;;;;;;5006898;28;20064;-79
2021/03/04 07:21:33;;;;;;;31.33;11.38;;;4.50;99.90;;;;;;5008927;28;20054;-79
2021/03/04 07:24:03;;;;;;;29.65;10.77;;;4.50;99.90;;;;;;5001408;28;20058;-79
2021/03/04 07:26:30;;;;;;;34.95;12.02;;;4.50;99.90;;;;;;4990729;28;20054;-79
2021/03/04 07:29:00;;;;;;;41.47;12.82;;;4.50;99.90;;;;;;4998406;28;20034;-80
2021/03/04 07:31:27;;;;;;;34.90;11.43;;;4.50;99.90;;;;;;5005856;28;20089;-80
2021/03/04 07:33:54;;;;;;;33.97;11.88;;;4.50;99.90;;;;;;5008528;28;20051;-80
2021/03/04 07:36:22;;;;;;;35.17;10.60;;;4.50;99.90;;;;;;5006403;28;20050;-80
2021/03/04 07:39:03;;;;;;;32.78;10.85;;;4.50;99.90;;;;;;5001345;28;20148;-80
2021/03/04 07:41:37;;;;;;;30.58;9.52;;;4.50;99.90;;;;;;5000405;28;20043;-79
2021/03/04 07:44:04;;;;;;;27.92;9.23;;;4.40;99.90;;;;;;5000039;28;20050;-80
2021/03/04 07:46:32;;;;;;;26.17;9.13;;;4.40;99.90;;;;;;4985511;28;20170;-79
2021/03/04 07:49:00;;;;;;;26.10;9.40;;;4.30;99.90;;;;;;5011295;28;20133;-79
2021/03/04 07:51:27;;;;;;;23.67;8.77;;;4.30;99.90;;;;;;4992711;28;20406;-78
2021/03/04 07:53:55;;;;;;;25.17;8.70;;;4.30;99.90;;;;;;5012938;28;20106;-80
2021/03/04 07:56:28;;;;;;;20.35;8.43;;;4.30;99.90;;;;;;5003239;28;20046;-80
2021/03/04 07:59:06;;;;;;;16.60;7.45;;;4.40;99.90;;;;;;5000380;28;20052;-78
2021/03/04 08:01:33;;;;;;;16.88;7.10;;;4.30;99.90;;;;;;5011258;28;20113;-79
2021/03/04 08:04:01;;;;;;;17.73;7.57;;;4.30;99.90;;;;;;5008245;28;20115;-80
2021/03/04 08:06:28;;;;;;;15.13;5.32;;;4.30;99.90;;;;;;5011058;28;20569;-81
2021/03/04 08:08:55;;;;;;;18.35;7.30;;;4.30;99.90;;;;;;5011078;28;20049;-79
2021/03/04 08:11:28;;;;;;;17.25;6.93;;;4.30;99.90;;;;;;5004799;28;20045;-82
2021/03/04 08:13:55;;;;;;;16.33;7.38;;;4.30;99.90;;;;;;5011867;28;20046;-81
2021/03/04 08:16:22;;;;;;;15.10;6.75;;;4.30;99.90;;;;;;5013487;28;20402;-80
2021/03/04 08:18:56;;;;;;;13.77;6.65;;;4.30;99.90;;;;;;5012311;28;20060;-81
2021/03/04 08:21:23;;;;;;;16.20;6.10;;;4.30;99.90;;;;;;5014033;28;20096;-82
2021/03/04 08:23:51;;;;;;;16.48;6.35;;;4.30;99.90;;;;;;4987824;28;20050;-80
2021/03/04 08:26:26;;;;;;;14.50;6.22;;;4.30;99.90;;;;;;5001475;28;20533;-82
2021/03/04 08:29:03;;;;;;;9.35;4.68;;;4.30;99.90;;;;;;5016583;28;20048;-81
2021/03/04 08:31:30;;;;;;;13.85;5.43;;;4.40;99.90;;;;;;4996437;28;20046;-82
2021/03/04 08:33:57;;;;;;;18.92;6.20;;;4.30;99.90;;;;;;5013625;28;20110;-81
2021/03/04 08:36:23;;;;;;;14.90;6.13;;;4.30;99.90;;;;;;4992653;28;20061;-82
2021/03/04 08:38:50;;;;;;;15.38;7.05;;;4.40;99.90;;;;;;5006716;28;20053;-81
2021/03/04 08:41:21;;;;;;;13.07;6.65;;;4.40;99.90;;;;;;5006809;28;20109;-82
2021/03/04 08:43:48;;;;;;;15.93;6.57;;;4.40;99.90;;;;;;5006865;28;20133;-82
2021/03/04 08:46:15;;;;;;;14.80;6.18;;;4.50;99.90;;;;;;5016881;28;20066;-81
2021/03/04 08:48:48;;;;;;;13.55;6.47;;;4.50;99.90;;;;;;4997685;28;20412;-82
2021/03/04 08:51:16;;;;;;;7.97;4.45;;;4.50;99.90;;;;;;5013667;28;20432;-81
2021/03/04 08:53:47;;;;;;;11.75;5.32;;;4.50;99.90;;;;;;5004608;28;20054;-80
2021/03/04 08:56:13;;;;;;;9.88;5.15;;;4.50;99.90;;;;;;4994592;28;20470;-82
2021/03/04 08:58:42;;;;;;;10.93;4.97;;;4.50;99.90;;;;;;5018914;28;20208;-81
2021/03/04 09:01:10;;;;;;;9.40;4.93;;;4.50;99.90;;;;;;5000531;28;20449;-82
2021/03/04 09:03:39;;;;;;;8.18;4.57;;;4.50;99.90;;;;;;5014780;28;20056;-81
2021/03/04 09:06:16;;;;;;;8.20;4.47;;;4.60;99.90;;;;;;5013103;28;20117;-81
2021/03/04 09:08:47;;;;;;;11.20;5.45;;;4.60;99.90;;;;;;5015150;28;20068;-83
2021/03/04 09:11:29;;;;;;;8.95;5.22;;;4.70;99.90;;;;;;5015318;28;20046;-80
2021/03/04 09:14:08;;;;;;;11.00;5.53;;;4.80;99.90;;;;;;5014963;28;20065;-83
2021/03/04 09:16:42;;;;;;;11.45;5.40;;;4.80;99.90;;;;;;4997024;28;20049;-81
2021/03/04 09:19:09;;;;;;;10.30;4.88;;;4.90;99.90;;;;;;5003259;28;20153;-82
2021/03/04 09:21:36;;;;;;;9.48;6.03;;;5.10;99.90;;;;;;5014269;28;20061;-81
2021/03/04 09:24:02;;;;;;;10.80;5.35;;;5.20;99.90;;;;;;5003605;28;20429;-82
2021/03/04 09:26:33;;;;;;;8.60;4.85;;;5.40;99.90;;;;;;4994632;28;20065;-79
2021/03/04 09:29:03;;;;;;;10.02;5.25;;;5.40;99.90;;;;;;5012138;28;20050;-79
2021/03/04 09:31:29;;;;;;;9.60;5.00;;;5.60;99.90;;;;;;4997137;28;20046;-80
2021/03/04 09:34:02;;;;;;;13.35;5.65;;;5.70;99.90;;;;;;5012228;28;20049;-80
2021/03/04 09:36:30;;;;;;;11.20;5.45;;;5.80;99.90;;;;;;4995112;28;20041;-79
2021/03/04 09:38:57;;;;;;;9.20;5.57;;;5.90;99.90;;;;;;4999881;28;20136;-81
2021/03/04 09:41:24;;;;;;;11.60;5.70;;;6.00;99.90;;;;;;5014173;28;20069;-81
2021/03/04 09:43:56;;;;;;;13.35;5.72;;;6.00;99.90;;;;;;4990408;28;20042;-81
2021/03/04 09:46:29;;;;;;;11.88;5.88;;;6.10;99.90;;;;;;4965370;28;20134;-82
2021/03/04 09:49:09;;;;;;;8.73;5.43;;;6.30;99.90;;;;;;4971785;28;20039;-82
2021/03/04 09:51:37;;;;;;;9.10;5.03;;;6.40;99.90;;;;;;4974865;28;20038;-82
2021/03/04 09:54:04;;;;;;;17.42;6.13;;;6.50;99.90;;;;;;4975930;28;20074;-80
2021/03/04 09:57:07;;;;;;;8.20;5.53;;;6.60;99.90;;;;;;4973560;28;20051;-81
2021/03/04 09:59:50;;;;;;;9.43;5.40;;;6.70;99.90;;;;;;4964171;28;20685;-81
2021/03/04 10:02:25;;;;;;;9.82;5.35;;;6.80;99.90;;;;;;4974639;28;20043;-82
2021/03/04 10:04:54;;;;;;;11.57;5.25;;;6.80;99.90;;;;;;4968089;28;20043;-82
2021/03/04 10:07:27;;;;;;;8.80;5.32;;;6.80;99.90;;;;;;4975511;28;20129;-81
2021/03/04 10:09:54;;;;;;;6.97;4.63;;;6.80;99.90;;;;;;4973129;28;20157;-82
2021/03/04 10:12:22;;;;;;;9.20;5.10;;;7.00;99.90;;;;;;4979496;28;20058;-82
2021/03/04 10:14:52;;;;;;;9.88;5.80;;;7.00;99.90;;;;;;4972539;28;20094;-82
2021/03/04 10:17:19;;;;;;;9.45;4.85;;;7.20;99.90;;;;;;4967083;28;20058;-81
2021/03/04 10:19:47;;;;;;;8.82;4.90;;;7.20;99.90;;;;;;4976339;28;20049;-81
2021/03/04 10:22:13;;;;;;;8.50;4.57;;;7.10;99.90;;;;;;4981670;28;20055;-81
2021/03/04 10:24:39;;;;;;;7.13;4.68;;;7.00;99.90;;;;;;4972538;28;20115;-81
2021/03/04 10:27:06;;;;;;;11.70;4.50;;;7.00;99.90;;;;;;4979774;28;20059;-83
2021/03/04 10:29:34;;;;;;;8.07;5.38;;;7.00;99.90;;;;;;4991012;28;21588;-82
2021/03/04 10:32:02;;;;;;;8.57;5.00;;;7.10;99.90;;;;;;4978406;28;20097;-81
2021/03/04 10:34:28;;;;;;;10.93;4.85;;;7.10;99.90;;;;;;4974750;28;20115;-81
2021/03/04 10:36:54;;;;;;;9.13;5.22;;;7.20;99.90;;;;;;4974088;28;20079;-81
2021/03/04 10:39:22;;;;;;;7.50;4.45;;;7.20;99.90;;;;;;4978826;28;20047;-81
2021/03/04 10:41:48;;;;;;;7.95;5.15;;;7.10;99.90;;;;;;4992458;28;20107;-81
2021/03/04 10:44:15;;;;;;;10.95;5.90;;;7.00;99.90;;;;;;4999248;28;20125;-81
2021/03/04 10:46:42;;;;;;;11.20;6.00;;;6.80;99.90;;;;;;4996502;28;20069;-82
2021/03/04 10:49:08;;;;;;;9.93;5.95;;;6.80;99.90;;;;;;4995451;28;20049;-82
2021/03/04 10:51:35;;;;;;;10.57;5.68;;;6.80;99.90;;;;;;4995708;28;20114;-82
2021/03/04 10:54:02;;;;;;;13.35;6.25;;;6.80;99.90;;;;;;4996637;28;20064;-81
2021/03/04 10:56:28;;;;;;;9.13;4.85;;;6.80;99.90;;;;;;5016815;28;20054;-80
2021/03/04 10:58:54;;;;;;;7.40;3.78;;;6.80;99.90;;;;;;4992579;28;20049;-82
2021/03/04 11:01:21;;;;;;;11.88;4.63;;;6.80;99.90;;;;;;5013709;28;20062;-82
2021/03/04 11:03:48;;;;;;;5.53;3.92;;;6.70;99.90;;;;;;5012748;28;20509;-81
2021/03/04 11:06:14;;;;;;;9.73;3.80;;;6.70;99.90;;;;;;5014366;28;20073;-81
2021/03/04 11:08:40;;;;;;;7.55;3.90;;;6.60;99.90;;;;;;5001530;28;20144;-82
2021/03/04 11:11:06;;;;;;;8.55;4.55;;;6.70;99.90;;;;;;5010046;28;20137;-81
2021/03/04 11:13:33;;;;;;;6.35;3.40;;;6.80;99.90;;;;;;5009643;28;20050;-82
2021/03/04 11:15:59;;;;;;;6.13;4.10;;;6.80;99.90;;;;;;4994856;28;20413;-81
2021/03/04 11:18:25;;;;;;;5.28;3.85;;;6.80;99.90;;;;;;4990853;28;20058;-81
2021/03/04 11:20:52;;;;;;;5.82;3.10;;;6.80;99.90;;;;;;4992909;28;20490;-80
2021/03/04 11:23:18;;;;;;;9.82;3.97;;;6.80;99.90;;;;;;5000325;28;20122;-81
2021/03/04 11:26:00;;;;;;;7.10;3.88;;;6.80;99.90;;;;;;4998929;28;20053;-83
2021/03/04 11:28:27;;;;;;;8.02;3.45;;;6.80;99.90;;;;;;5010074;28;20712;-83
2021/03/04 11:30:57;;;;;;;6.32;3.38;;;6.80;99.90;;;;;;5014266;28;20520;-83
2021/03/04 11:33:23;;;;;;;5.93;3.10;;;6.80;99.90;;;;;;4996651;28;20069;-83
2021/03/04 11:35:50;;;;;;;5.50;2.90;;;6.90;99.90;;;;;;5004631;28;20053;-82
2021/03/04 11:38:16;;;;;;;3.78;2.28;;;6.90;99.90;;;;;;5012461;28;20054;-81
2021/03/04 11:40:42;;;;;;;4.80;1.73;;;6.90;99.90;;;;;;5017271;28;20077;-83
2021/03/04 11:43:10;;;;;;;6.65;2.83;;;7.00;99.90;;;;;;5017423;28;20057;-82
2021/03/04 11:45:36;;;;;;;4.47;2.00;;;7.00;99.90;;;;;;5017218;28;20140;-81
2021/03/04 11:48:03;;;;;;;3.85;2.03;;;7.10;99.90;;;;;;5016168;28;20072;-83
2021/03/04 11:50:30;;;;;;;4.25;2.15;;;7.10;99.90;;;;;;5014517;28;20221;-81
2021/03/04 11:52:56;;;;;;;3.30;2.00;;;7.20;99.90;;;;;;5016308;28;20057;-82
2021/03/04 11:55:22;;;;;;;3.78;2.00;;;7.20;99.90;;;;;;5014030;28;20077;-80
2021/03/04 11:57:49;;;;;;;4.85;1.80;;;7.20;99.90;;;;;;5001974;28;20413;-82
2021/03/04 12:00:17;;;;;;;2.47;2.00;;;7.20;99.90;;;;;;5017611;28;21262;-82
2021/03/04 12:02:43;;;;;;;5.47;2.00;;;7.10;99.90;;;;;;5014547;28;20405;-81
2021/03/04 12:05:11;;;;;;;9.02;2.35;;;6.90;99.90;;;;;;5002356;28;20050;-82
2021/03/04 12:07:37;;;;;;;6.57;2.58;;;6.80;99.90;;;;;;4991511;28;20060;-80
2021/03/04 12:10:07;;;;;;;3.35;2.30;;;6.80;99.90;;;;;;5016855;28;20109;-80
2021/03/04 12:12:33;;;;;;;8.32;2.45;;;6.90;99.90;;;;;;5013668;28;20100;-81
2021/03/04 12:14:59;;;;;;;3.92;1.98;;;7.00;99.90;;;;;;5013596;28;21363;-81
2021/03/04 12:17:27;;;;;;;5.05;2.25;;;7.20;99.90;;;;;;4993093;28;20053;-80
2021/03/04 12:19:54;;;;;;;4.28;1.90;;;7.30;99.90;;;;;;5014864;28;20100;-79
2021/03/04 12:22:20;;;;;;;1.98;1.77;;;7.30;99.90;;;;;;5016626;28;20633;-79
2021/03/04 12:24:46;;;;;;;14.20;1.90;;;7.40;99.90;;;;;;5012994;28;20106;-80
2021/03/04 12:27:13;;;;;;;8.07;1.75;;;7.40;99.90;;;;;;5010309;28;20531;-80
2021/03/04 12:29:39;;;;;;;7.30;1.92;;;7.40;99.90;;;;;;5011864;28;20107;-79
2021/03/04 12:32:06;;;;;;;8.88;2.13;;;7.50;99.90;;;;;;5016509;28;20065;-80
2021/03/04 12:34:32;;;;;;;9.50;1.92;;;7.50;99.90;;;;;;5016715;28;20062;-79
2021/03/04 12:36:59;;;;;;;4.55;1.60;;;7.40;99.90;;;;;;5016224;28;20046;-80
2021/03/04 12:39:25;;;;;;;3.55;1.90;;;7.40;99.90;;;;;;5013207;28;20058;-80
2021/03/04 12:41:52;;;;;;;3.38;1.60;;;7.40;99.90;;;;;;5012264;28;20654;-82
2021/03/04 12:44:20;;;;;;;5.07;1.77;;;7.30;99.90;;;;;;4996278;28;20100;-79
2021/03/04 12:46:46;;;;;;;3.25;1.80;;;7.30;99.90;;;;;;5018755;28;20077;-81
2021/03/04 12:49:13;;;;;;;4.80;1.63;;;7.30;99.90;;;;;;4997758;28;20057;-80